KOLF/OLF METAR and TAF weather

Enter ICAO airport designator
Station Type Date Time Source
KOLF METAR 2019/02/17 15:53 UTC NOAA

KOLF 171553Z AUTO 30005KT 1 1/4SM -SN OVC021 M15/M18 A3024 RMK AO2 SLP289 P0000 T11501183 $


Station Type Date Time Source
KOLF Decoded METAR 2019/02/17 15:53 UTC NOAA

WOLF POINT CLAYTON AIRPORT, MT, United States (KOLF) 48-06N 105-35W 604M
Feb 17, 2019 - 10:53 AM EST / 2019.02.17 1553 UTC
Wind: from the WNW (300 degrees) at 6 MPH (5 KT):0
Visibility: 1 1/4 mile(s):0
Sky conditions: overcast
Weather: light snow
Precipitation last hour: A trace
Temperature: 5.0 F (-15.0 C)
Windchill: -5 F (-21 C):2
Dew Point: -0.9 F (-18.3 C)
Relative Humidity: 75%
Pressure (altimeter): 30.24 in. Hg (1024 hPa)
ob: KOLF 171553Z AUTO 30005KT 1 1/4SM -SN OVC021 M15/M18 A3024 RMK AO2 SLP289 P0000 T11501183
cycle: 16

Station Type Date Time Source
KOLF TAF 2019/02/17 12:33 UTC NOAA

TAF KOLF 171130Z 1712/1812 32010KT 2SM -SN OVC025
FM180300 VRB04KT P6SM OVC025


Example: see airport list